createdAt,value
2022-09-14T00:01:26.913Z,100838.63
2022-09-14T00:04:28.607Z,100839.94
2022-09-14T00:07:29.973Z,100837.34
2022-09-14T00:10:31.396Z,100820.16
2022-09-14T00:13:33.581Z,100817.66
2022-09-14T00:16:39.564Z,100818.94
2022-09-14T00:19:40.977Z,100807.84
2022-09-14T00:22:42.337Z,100812.19
2022-09-14T00:25:43.660Z,100801.41
2022-09-14T00:29:05.365Z,100795.34
2022-09-14T00:32:06.792Z,100789.50
2022-09-14T00:35:08.529Z,100786.28
2022-09-14T00:38:09.890Z,100781.38
2022-09-14T00:41:14.624Z,100774.72
2022-09-14T00:44:15.930Z,100781.88
2022-09-14T00:47:17.532Z,100770.78
2022-09-14T00:50:20.093Z,100765.78
2022-09-14T00:53:21.829Z,100766.19
2022-09-14T00:56:23.245Z,100756.75
2022-09-14T00:59:28.867Z,100761.09
2022-09-14T01:02:30.291Z,100765.44
2022-09-14T01:06:03.910Z,100765.53
2022-09-14T01:09:14.225Z,100761.38
2022-09-14T01:12:37.405Z,100776.81
2022-09-14T01:15:49.106Z,100780.53
2022-09-14T01:18:56.706Z,100783.13
2022-09-14T01:22:10.664Z,100780.63
2022-09-14T01:25:46.246Z,100778.91
2022-09-14T01:28:53.385Z,100784.81
2022-09-14T01:32:03.322Z,100779.25
2022-09-14T01:35:12.090Z,100782.34
2022-09-14T01:38:23.246Z,100774.06
2022-09-14T01:41:27.494Z,100770.72
2022-09-14T01:44:34.383Z,100768.34
2022-09-14T01:47:45.771Z,100771.94
2022-09-14T01:50:52.278Z,100764.44
2022-09-14T01:54:00.613Z,100774.16
2022-09-14T01:57:08.283Z,100771.94
2022-09-14T02:00:12.389Z,100766.22
2022-09-14T02:03:21.587Z,100766.31
2022-09-14T02:06:31.725Z,100764.00
2022-09-14T02:09:33.351Z,100769.38
2022-09-14T02:12:35.711Z,100773.81
2022-09-14T02:15:38.199Z,100764.56
2022-09-14T02:18:40.223Z,100762.16
2022-09-14T02:21:41.616Z,100765.59
2022-09-14T02:24:43.210Z,100767.63
2022-09-14T02:27:44.553Z,100760.88
2022-09-14T02:31:06.574Z,100751.06
2022-09-14T02:34:23.879Z,100752.47
2022-09-14T02:37:55.896Z,100752.81
2022-09-14T02:41:02.749Z,100750.25
2022-09-14T02:44:13.326Z,100758.75
2022-09-14T02:47:25.906Z,100751.72
2022-09-14T02:51:00.553Z,100743.66
2022-09-14T02:54:08.357Z,100743.00
2022-09-14T02:57:10.899Z,100748.63
2022-09-14T03:00:12.741Z,100750.13
2022-09-14T03:03:16.909Z,100752.16
2022-09-14T03:06:18.300Z,100750.56
2022-09-14T03:09:19.666Z,100745.75
2022-09-14T03:12:21.041Z,100747.25
2022-09-14T03:15:22.479Z,100741.81
2022-09-14T03:18:23.840Z,100735.53
2022-09-14T03:21:25.154Z,100748.84
2022-09-14T03:24:26.481Z,100737.03
2022-09-14T03:27:27.871Z,100734.63
2022-09-14T03:30:29.212Z,100731.38
2022-09-14T03:33:30.930Z,100727.22
2022-09-14T03:36:32.277Z,100730.81
2022-09-14T03:39:33.615Z,100728.50
2022-09-14T03:42:35.286Z,100718.44
2022-09-14T03:45:36.806Z,100716.88
2022-09-14T03:48:38.251Z,100714.38
2022-09-14T03:51:39.583Z,100710.22
2022-09-14T03:54:40.931Z,100701.06
2022-09-14T03:57:42.306Z,100694.59
2022-09-14T04:00:43.767Z,100692.16
2022-09-14T04:03:45.948Z,100691.63
2022-09-14T04:06:47.263Z,100696.97
2022-09-14T04:09:48.596Z,100692.72
2022-09-14T04:12:49.936Z,100696.13
2022-09-14T04:16:00.996Z,100694.66
2022-09-14T04:19:02.864Z,100683.97
2022-09-14T04:22:04.561Z,100691.25
2022-09-14T04:25:06.316Z,100697.63
2022-09-14T04:28:20.063Z,100699.75
2022-09-14T04:31:23.024Z,100704.94
2022-09-14T04:34:24.525Z,100710.47
2022-09-14T04:37:25.864Z,100704.13
2022-09-14T04:40:27.233Z,100704.56
2022-09-14T04:43:28.673Z,100700.41
2022-09-14T04:46:32.261Z,100703.00
2022-09-14T04:49:33.697Z,100706.50
2022-09-14T04:52:35.034Z,100703.81
2022-09-14T04:55:36.466Z,100697.63
2022-09-14T04:58:41.261Z,100699.94
2022-09-14T05:01:45.576Z,100702.31
2022-09-14T05:04:46.947Z,100701.09
2022-09-14T05:07:48.303Z,100692.97
2022-09-14T05:10:49.638Z,100692.56
2022-09-14T05:13:51.397Z,100682.03
2022-09-14T05:16:52.714Z,100673.88
2022-09-14T05:19:54.066Z,100685.59
2022-09-14T05:22:55.403Z,100688.09
2022-09-14T05:25:57.262Z,100703.38
2022-09-14T05:29:00.477Z,100697.97
2022-09-14T05:32:02.033Z,100687.56
2022-09-14T05:35:03.556Z,100694.31
2022-09-14T05:38:04.883Z,100693.19
2022-09-14T05:41:07.935Z,100692.66
2022-09-14T05:44:09.391Z,100700.25
2022-09-14T05:47:10.751Z,100704.50
2022-09-14T05:50:12.084Z,100693.84
2022-09-14T05:53:13.563Z,100694.19
2022-09-14T05:56:15.435Z,100693.88
2022-09-14T05:59:16.758Z,100690.69
2022-09-14T06:02:18.463Z,100697.78
2022-09-14T06:05:20.990Z,100692.81
2022-09-14T06:08:23.328Z,100689.69
2022-09-14T06:11:30.301Z,100684.50
2022-09-14T06:14:31.642Z,100688.94
2022-09-14T06:17:33.009Z,100682.94
2022-09-14T06:20:34.361Z,100678.88
2022-09-14T06:23:36.221Z,100679.78
2022-09-14T06:26:38.192Z,100683.41
2022-09-14T06:29:39.537Z,100681.34
2022-09-14T06:32:40.876Z,100682.06
2022-09-14T06:35:42.389Z,100682.84
2022-09-14T06:38:43.759Z,100676.59
2022-09-14T06:41:45.140Z,100671.94
2022-09-14T06:44:53.522Z,100681.28
2022-09-14T06:47:54.922Z,100681.28
2022-09-14T06:50:56.682Z,100681.56
2022-09-14T06:53:59.660Z,100673.09
2022-09-14T06:57:01.034Z,100676.59
2022-09-14T07:00:02.611Z,100670.00
2022-09-14T07:03:04.265Z,100669.63
2022-09-14T07:06:11.246Z,100680.41
2022-09-14T07:09:13.958Z,100667.84
2022-09-14T07:12:15.326Z,100675.59
2022-09-14T07:15:16.660Z,100673.81
2022-09-14T07:18:18.152Z,100669.50
2022-09-14T07:21:19.572Z,100663.97
2022-09-14T07:24:21.020Z,100657.88
2022-09-14T07:27:22.364Z,100654.63
2022-09-14T07:30:23.713Z,100652.38
2022-09-14T07:33:25.380Z,100659.28
2022-09-14T07:36:29.541Z,100657.34
2022-09-14T07:39:34.078Z,100665.47
2022-09-14T07:42:35.448Z,100672.59
2022-09-14T07:45:38.215Z,100671.78
2022-09-14T07:48:39.611Z,100668.06
2022-09-14T07:51:41.389Z,100671.34
2022-09-14T07:54:42.702Z,100663.13
2022-09-14T07:57:56.180Z,100658.16
2022-09-14T08:00:59.916Z,100656.28
2022-09-14T08:04:05.489Z,100658.81
2022-09-14T08:07:07.438Z,100655.09
2022-09-14T08:10:08.846Z,100654.81
2022-09-14T08:13:10.154Z,100655.81
2022-09-14T08:16:12.915Z,100657.03
2022-09-14T08:19:17.299Z,100654.59
2022-09-14T08:22:18.687Z,100656.75
2022-09-14T08:25:19.969Z,100644.03
2022-09-14T08:28:21.318Z,100632.94
2022-09-14T08:31:27.317Z,100634.56
2022-09-14T08:34:29.011Z,100638.84
2022-09-14T08:37:30.299Z,100629.47
2022-09-14T08:40:31.692Z,100629.44
2022-09-14T08:43:33.408Z,100634.25
2022-09-14T08:46:40.447Z,100644.84
2022-09-14T08:49:50.676Z,100643.84
2022-09-14T08:52:53.372Z,100623.09
2022-09-14T08:55:59.971Z,100625.22
2022-09-14T08:59:04.082Z,100632.69
2022-09-14T09:02:21.199Z,100628.09
2022-09-14T09:05:30.345Z,100621.31
2022-09-14T09:09:06.703Z,100620.63
2022-09-14T09:12:19.665Z,100614.44
2022-09-14T09:15:41.794Z,100624.56
2022-09-14T09:18:47.498Z,100618.09
2022-09-14T09:21:48.967Z,100605.53
2022-09-14T09:24:54.038Z,100603.78
2022-09-14T09:28:02.932Z,100615.81
2022-09-14T09:31:11.437Z,100620.66
2022-09-14T09:34:39.478Z,100619.75
2022-09-14T09:37:49.786Z,100618.41
2022-09-14T09:40:58.311Z,100627.31
2022-09-14T09:44:05.052Z,100610.53
2022-09-14T09:47:06.480Z,100607.44
2022-09-14T09:50:13.920Z,100601.13
2022-09-14T09:53:16.884Z,100604.63
2022-09-14T09:56:19.968Z,100608.06
2022-09-14T09:59:38.572Z,100605.66
2022-09-14T10:02:41.147Z,100606.84
2022-09-14T10:05:42.553Z,100604.63
2022-09-14T10:08:46.613Z,100602.44
2022-09-14T10:11:56.900Z,100598.28
2022-09-14T10:15:20.405Z,100595.22
2022-09-14T10:18:22.207Z,100585.53
2022-09-14T10:21:25.077Z,100577.72
2022-09-14T10:24:27.470Z,100582.75
2022-09-14T10:27:38.374Z,100593.97
2022-09-14T10:30:46.336Z,100593.97
2022-09-14T10:33:51.571Z,100599.03
2022-09-14T10:37:11.723Z,100601.44
2022-09-14T10:40:16.637Z,100599.38
2022-09-14T10:43:59.613Z,100597.78
2022-09-14T10:47:04.841Z,100595.81
2022-09-14T10:50:24.375Z,100589.78
2022-09-14T10:53:48.862Z,100596.47
2022-09-14T10:57:11.954Z,100603.22
2022-09-14T11:00:18.638Z,100603.91
2022-09-14T11:03:44.048Z,100608.28
2022-09-14T11:07:07.839Z,100605.81
2022-09-14T11:10:29.866Z,100603.63
2022-09-14T11:13:45.302Z,100608.34
2022-09-14T11:17:05.315Z,100607.25
2022-09-14T11:20:42.461Z,100605.00
2022-09-14T11:23:58.556Z,100613.13
2022-09-14T11:27:26.379Z,100596.19
2022-09-14T11:30:38.667Z,100601.41
2022-09-14T11:33:48.596Z,100592.88
2022-09-14T11:36:55.248Z,100588.44
2022-09-14T11:40:16.901Z,100587.69
2022-09-14T11:43:24.745Z,100598.84
2022-09-14T11:46:41.236Z,100596.50
2022-09-14T11:49:54.484Z,100588.25
2022-09-14T11:53:01.787Z,100589.09
2022-09-14T11:56:03.444Z,100578.47
2022-09-14T11:59:06.893Z,100578.78
2022-09-14T12:02:23.625Z,100581.31
2022-09-14T12:05:27.828Z,100579.66
2022-09-14T12:08:35.325Z,100573.16
2022-09-14T12:11:37.100Z,100575.75
2022-09-14T12:14:40.584Z,100573.06
2022-09-14T12:17:42.385Z,100573.81
2022-09-14T12:20:45.973Z,100574.34
2022-09-14T12:23:49.291Z,100568.19
2022-09-14T12:26:50.673Z,100562.72
2022-09-14T12:29:52.101Z,100568.81
2022-09-14T12:32:53.457Z,100569.16
2022-09-14T12:35:54.805Z,100565.50
2022-09-14T12:38:59.123Z,100569.94
2022-09-14T12:42:25.582Z,100569.00
2022-09-14T12:45:50.691Z,100571.06
2022-09-14T12:48:59.399Z,100571.09
2022-09-14T12:52:12.212Z,100572.66
2022-09-14T12:55:25.671Z,100571.69
2022-09-14T12:58:33.047Z,100560.81
2022-09-14T13:02:18.353Z,100562.72
2022-09-14T13:05:28.044Z,100561.25
2022-09-14T13:08:29.423Z,100560.34
2022-09-14T13:11:35.462Z,100547.22
2022-09-14T13:14:47.675Z,100540.50
2022-09-14T13:18:21.782Z,100535.59
2022-09-14T13:21:24.387Z,100547.72
2022-09-14T13:24:29.960Z,100542.41
2022-09-14T13:27:35.665Z,100539.84
2022-09-14T13:30:37.215Z,100539.53
2022-09-14T13:33:38.663Z,100545.38
2022-09-14T13:36:43.803Z,100538.03
2022-09-14T13:39:50.315Z,100542.09
2022-09-14T13:42:51.924Z,100529.75
2022-09-14T13:45:53.550Z,100534.19
2022-09-14T13:48:55.704Z,100522.78
2022-09-14T13:52:38.551Z,100521.91
2022-09-14T13:55:44.934Z,100523.47
2022-09-14T13:58:49.028Z,100520.38
2022-09-14T14:02:00.295Z,100511.25
2022-09-14T14:05:03.592Z,100518.94
2022-09-14T14:08:22.201Z,100518.69
2022-09-14T14:11:53.893Z,100518.69
2022-09-14T14:15:00.586Z,100514.88
2022-09-14T14:18:31.959Z,100516.75
2022-09-14T14:21:33.562Z,100509.09
2022-09-14T14:24:45.206Z,100493.22
2022-09-14T14:28:00.402Z,100499.44
2022-09-14T14:31:07.807Z,100490.38
2022-09-14T14:34:19.514Z,100489.63
2022-09-14T14:37:21.837Z,100491.63
2022-09-14T14:40:24.425Z,100481.59
2022-09-14T14:43:26.590Z,100473.94
2022-09-14T14:46:28.082Z,100475.84
2022-09-14T14:49:29.505Z,100472.78
2022-09-14T14:52:30.882Z,100473.88
2022-09-14T14:55:33.407Z,100473.13
2022-09-14T14:58:45.821Z,100464.31
2022-09-14T15:01:48.339Z,100464.38
2022-09-14T15:04:49.695Z,100468.88
2022-09-14T15:07:51.251Z,100466.25
2022-09-14T15:10:56.948Z,100461.53
2022-09-14T15:13:58.299Z,100449.63
2022-09-14T15:16:59.962Z,100445.66
2022-09-14T15:20:01.943Z,100443.59
2022-09-14T15:23:03.603Z,100447.56
2022-09-14T15:26:05.151Z,100443.44
2022-09-14T15:29:06.516Z,100447.88
2022-09-14T15:32:08.017Z,100442.22
2022-09-14T15:35:12.897Z,100438.41
2022-09-14T15:38:14.260Z,100433.63
2022-09-14T15:41:15.589Z,100436.34
2022-09-14T15:44:17.661Z,100440.22
2022-09-14T15:47:19.053Z,100435.41
2022-09-14T15:50:20.400Z,100435.94
2022-09-14T15:53:21.768Z,100444.97
2022-09-14T15:56:23.112Z,100438.38
2022-09-14T15:59:24.708Z,100442.34
2022-09-14T16:02:26.135Z,100445.28
2022-09-14T16:05:27.536Z,100441.97
2022-09-14T16:08:29.016Z,100442.41
2022-09-14T16:11:30.550Z,100442.47
2022-09-14T16:14:31.985Z,100443.09
2022-09-14T16:17:33.301Z,100434.44
2022-09-14T16:20:35.782Z,100430.75
2022-09-14T16:23:40.512Z,100428.47
2022-09-14T16:26:42.675Z,100432.19
2022-09-14T16:29:43.987Z,100434.19
2022-09-14T16:32:45.378Z,100440.78
2022-09-14T16:35:47.046Z,100432.53
2022-09-14T16:38:48.502Z,100440.94
2022-09-14T16:41:50.540Z,100434.63
2022-09-14T16:44:51.872Z,100443.03
2022-09-14T16:47:53.202Z,100439.50
2022-09-14T16:50:55.211Z,100436.50
2022-09-14T16:53:58.375Z,100437.44
2022-09-14T16:56:59.750Z,100451.63
2022-09-14T17:00:01.335Z,100442.97
2022-09-14T17:03:02.815Z,100446.25
2022-09-14T17:06:07.563Z,100446.13
2022-09-14T17:09:13.363Z,100447.06
2022-09-14T17:12:14.695Z,100448.25
2022-09-14T17:15:16.151Z,100448.84
2022-09-14T17:18:18.024Z,100449.25
2022-09-14T17:21:21.876Z,100454.47
2022-09-14T17:24:23.603Z,100463.09
2022-09-14T17:27:25.041Z,100458.34
2022-09-14T17:30:26.373Z,100460.66
2022-09-14T17:33:28.845Z,100460.91
2022-09-14T17:36:30.848Z,100459.34
2022-09-14T17:39:32.394Z,100459.84
2022-09-14T17:42:33.792Z,100454.97
2022-09-14T17:45:35.147Z,100459.78
2022-09-14T17:48:37.685Z,100460.00
2022-09-14T17:51:39.397Z,100464.72
2022-09-14T17:54:40.757Z,100455.50
2022-09-14T17:57:42.125Z,100457.06
2022-09-14T18:00:43.582Z,100459.50
2022-09-14T18:03:50.540Z,100454.66
2022-09-14T18:06:51.902Z,100450.91
2022-09-14T18:09:53.502Z,100456.25
2022-09-14T18:12:54.854Z,100461.94
2022-09-14T18:15:56.337Z,100450.00
2022-09-14T18:18:57.756Z,100457.59
2022-09-14T18:21:59.231Z,100455.34
2022-09-14T18:25:00.570Z,100458.19
2022-09-14T18:28:02.114Z,100449.56
2022-09-14T18:31:08.923Z,100455.00
2022-09-14T18:34:10.599Z,100456.00
2022-09-14T18:37:11.932Z,100452.44
2022-09-14T18:40:15.251Z,100444.63
2022-09-14T18:43:19.639Z,100450.91
2022-09-14T18:46:25.809Z,100460.50
2022-09-14T18:49:28.527Z,100456.97
2022-09-14T18:52:30.012Z,100456.97
2022-09-14T18:55:32.140Z,100454.91
2022-09-14T18:58:35.007Z,100464.41
2022-09-14T19:01:37.101Z,100453.97
2022-09-14T19:04:38.691Z,100453.38
2022-09-14T19:07:40.018Z,100455.97
2022-09-14T19:10:41.376Z,100453.38
2022-09-14T19:13:42.800Z,100452.09
2022-09-14T19:16:44.134Z,100446.78
2022-09-14T19:19:45.481Z,100448.22
2022-09-14T19:22:46.805Z,100450.19
2022-09-14T19:25:48.137Z,100451.84
2022-09-14T19:28:49.597Z,100451.47
2022-09-14T19:31:52.419Z,100451.00
2022-09-14T19:34:53.753Z,100443.19
2022-09-14T19:37:55.093Z,100450.09
2022-09-14T19:40:56.489Z,100451.84
2022-09-14T19:43:58.382Z,100453.41
2022-09-14T19:46:59.741Z,100454.00
2022-09-14T19:50:01.057Z,100454.94
2022-09-14T19:53:04.562Z,100456.25
2022-09-14T19:56:08.402Z,100451.59
2022-09-14T19:59:09.739Z,100446.41
2022-09-14T20:02:11.427Z,100444.25
2022-09-14T20:05:12.835Z,100443.06
2022-09-14T20:08:14.330Z,100442.69
2022-09-14T20:11:20.096Z,100443.97
2022-09-14T20:14:24.237Z,100445.25
2022-09-14T20:17:25.594Z,100438.19
2022-09-14T20:20:26.930Z,100440.25
2022-09-14T20:23:28.263Z,100447.31
2022-09-14T20:26:30.610Z,100445.88
2022-09-14T20:29:33.391Z,100441.72
2022-09-14T20:32:34.862Z,100441.25
2022-09-14T20:35:36.179Z,100444.91
2022-09-14T20:38:42.332Z,100450.44
2022-09-14T20:41:43.859Z,100450.88
2022-09-14T20:44:45.196Z,100451.78
2022-09-14T20:47:46.567Z,100451.91
2022-09-14T20:50:51.968Z,100446.22
2022-09-14T20:53:54.659Z,100452.47
2022-09-14T20:56:56.005Z,100445.47
2022-09-14T20:59:57.337Z,100448.38
2022-09-14T21:02:58.738Z,100441.03
2022-09-14T21:06:01.919Z,100450.47
2022-09-14T21:09:04.645Z,100442.81
2022-09-14T21:12:06.196Z,100445.72
2022-09-14T21:15:08.046Z,100442.53
2022-09-14T21:18:09.401Z,100437.03
2022-09-14T21:21:13.552Z,100434.28
2022-09-14T21:24:16.537Z,100435.53
2022-09-14T21:27:17.888Z,100431.97
2022-09-14T21:30:19.244Z,100433.44
2022-09-14T21:33:20.569Z,100436.03
2022-09-14T21:36:25.068Z,100427.53
2022-09-14T21:39:26.841Z,100414.88
2022-09-14T21:42:29.265Z,100417.69
2022-09-14T21:45:30.606Z,100427.53
2022-09-14T21:48:32.613Z,100424.34
2022-09-14T21:51:35.770Z,100420.31
2022-09-14T21:54:37.109Z,100418.97
2022-09-14T21:57:38.750Z,100418.06
2022-09-14T22:00:40.090Z,100408.91
2022-09-14T22:03:41.514Z,100408.41
2022-09-14T22:06:43.685Z,100412.16
2022-09-14T22:09:45.055Z,100404.69
2022-09-14T22:12:46.387Z,100404.91
2022-09-14T22:15:48.174Z,100395.84
2022-09-14T22:18:52.789Z,100397.94
2022-09-14T22:21:54.603Z,100396.47
2022-09-14T22:24:55.950Z,100409.66
2022-09-14T22:27:57.383Z,100405.00
2022-09-14T22:30:58.820Z,100400.81
2022-09-14T22:34:00.283Z,100395.06
2022-09-14T22:37:02.183Z,100396.81
2022-09-14T22:40:04.167Z,100394.28
2022-09-14T22:43:05.587Z,100385.66
2022-09-14T22:46:08.165Z,100383.84
2022-09-14T22:49:10.267Z,100382.59
2022-09-14T22:52:11.816Z,100380.16
2022-09-14T22:55:13.160Z,100376.06
2022-09-14T22:58:17.820Z,100369.28
2022-09-14T23:01:24.325Z,100372.16
2022-09-14T23:04:25.824Z,100364.81
2022-09-14T23:07:27.174Z,100362.00
2022-09-14T23:10:28.713Z,100352.22
2022-09-14T23:13:30.137Z,100359.78
2022-09-14T23:16:31.857Z,100356.88
2022-09-14T23:19:33.274Z,100354.63
2022-09-14T23:22:34.682Z,100347.69
2022-09-14T23:25:38.365Z,100351.56
2022-09-14T23:28:39.681Z,100353.13
2022-09-14T23:31:41.190Z,100355.47
2022-09-14T23:34:42.579Z,100371.88
2022-09-14T23:37:43.970Z,100361.72
2022-09-14T23:40:45.385Z,100364.44
2022-09-14T23:43:46.917Z,100357.47
2022-09-14T23:46:48.278Z,100370.25
2022-09-14T23:49:49.615Z,100375.31
2022-09-14T23:52:51.078Z,100382.25
2022-09-14T23:55:52.777Z,100382.38
2022-09-14T23:58:54.143Z,100384.16
